createdAt,value
2018-12-08T00:01:50.264Z,64.39
2018-12-08T00:04:19.466Z,64.11
2018-12-08T00:06:48.643Z,64.04
2018-12-08T00:09:17.899Z,63.42
2018-12-08T00:11:47.338Z,63.76
2018-12-08T00:14:16.564Z,63.60
2018-12-08T00:16:45.801Z,63.47
2018-12-08T00:19:14.940Z,63.60
2018-12-08T00:21:44.116Z,62.67
2018-12-08T00:24:13.269Z,62.51
2018-12-08T00:26:42.404Z,62.93
2018-12-08T00:29:11.532Z,62.49
2018-12-08T00:31:46.815Z,63.38
2018-12-08T00:34:16.040Z,63.07
2018-12-08T00:36:45.572Z,63.30
2018-12-08T00:39:14.821Z,63.26
2018-12-08T00:41:43.991Z,63.15
2018-12-08T00:44:13.207Z,62.92
2018-12-08T00:46:42.728Z,63.24
2018-12-08T00:49:11.973Z,63.21
2018-12-08T00:51:41.109Z,63.10
2018-12-08T00:54:10.234Z,63.37
2018-12-08T00:56:39.423Z,63.25
2018-12-08T00:59:08.579Z,63.49
2018-12-08T01:01:37.763Z,63.52
2018-12-08T01:04:06.929Z,63.43
2018-12-08T01:06:36.067Z,62.99
2018-12-08T01:09:08.875Z,63.20
2018-12-08T01:11:38.084Z,63.63
2018-12-08T01:14:07.375Z,63.37
2018-12-08T01:16:36.569Z,62.94
2018-12-08T01:19:05.727Z,62.80
2018-12-08T01:21:34.986Z,62.94
2018-12-08T01:24:04.147Z,63.60
2018-12-08T01:26:33.311Z,63.45
2018-12-08T01:29:02.437Z,62.90
2018-12-08T01:31:31.628Z,63.03
2018-12-08T01:34:00.796Z,63.63
2018-12-08T01:36:30.048Z,63.58
2018-12-08T01:38:59.223Z,63.28
2018-12-08T01:41:28.459Z,63.36
2018-12-08T01:43:57.647Z,63.88
2018-12-08T01:46:26.848Z,63.81
2018-12-08T01:48:55.991Z,63.69
2018-12-08T01:51:25.176Z,64.14
2018-12-08T01:53:54.360Z,63.75
2018-12-08T01:56:23.553Z,63.88
2018-12-08T01:58:52.734Z,63.44
2018-12-08T02:01:21.920Z,63.98
2018-12-08T02:03:52.838Z,64.09
2018-12-08T02:06:22.238Z,64.07
2018-12-08T02:08:51.435Z,63.61
2018-12-08T02:11:24.864Z,63.54
2018-12-08T02:13:51.692Z,63.63
2018-12-08T02:16:20.857Z,63.97
2018-12-08T02:18:50.000Z,63.95
2018-12-08T02:21:19.162Z,63.91
2018-12-08T02:23:48.320Z,63.60
2018-12-08T02:26:17.591Z,63.38
2018-12-08T02:28:46.771Z,63.42
2018-12-08T02:31:16.061Z,63.71
2018-12-08T02:33:45.263Z,63.58
2018-12-08T02:36:14.461Z,63.71
2018-12-08T02:38:43.685Z,62.88
2018-12-08T02:41:12.980Z,63.34
2018-12-08T02:43:42.156Z,62.81
2018-12-08T02:46:11.324Z,62.75
2018-12-08T02:48:40.456Z,62.06
2018-12-08T02:51:09.648Z,62.40
2018-12-08T02:53:38.871Z,61.87
2018-12-08T02:56:08.060Z,61.96
2018-12-08T02:58:37.253Z,61.91
2018-12-08T03:01:06.515Z,62.18
2018-12-08T03:03:35.676Z,62.32
2018-12-08T03:06:04.859Z,62.51
2018-12-08T03:08:34.047Z,62.19
2018-12-08T03:11:03.273Z,61.80
2018-12-08T03:13:32.491Z,62.04
2018-12-08T03:16:01.747Z,61.70
2018-12-08T03:18:30.955Z,62.12
2018-12-08T03:21:00.182Z,62.06
2018-12-08T03:23:30.571Z,61.85
2018-12-08T03:25:59.727Z,61.97
2018-12-08T03:28:28.923Z,61.19
2018-12-08T03:30:58.181Z,61.22
2018-12-08T03:33:27.350Z,61.15
2018-12-08T03:35:56.459Z,60.65
2018-12-08T03:38:25.709Z,60.78
2018-12-08T03:40:54.927Z,61.24
2018-12-08T03:43:24.092Z,60.99
2018-12-08T03:45:53.239Z,61.18
2018-12-08T03:48:22.453Z,60.75
2018-12-08T03:50:51.570Z,60.56
2018-12-08T03:53:20.764Z,60.79
2018-12-08T03:55:49.981Z,61.01
2018-12-08T03:58:19.371Z,61.36
2018-12-08T04:00:48.539Z,61.22
2018-12-08T04:03:17.936Z,61.12
2018-12-08T04:05:47.134Z,61.08
2018-12-08T04:08:16.415Z,60.67
2018-12-08T04:10:45.686Z,60.30
2018-12-08T04:13:14.861Z,60.33
2018-12-08T04:15:44.184Z,60.76
2018-12-08T04:18:13.407Z,60.52
2018-12-08T04:20:42.622Z,60.27
2018-12-08T04:23:11.847Z,60.31
2018-12-08T04:25:41.088Z,60.84
2018-12-08T04:28:10.289Z,61.20
2018-12-08T04:30:39.490Z,61.45
2018-12-08T04:33:08.631Z,62.07
2018-12-08T04:35:37.906Z,62.72
2018-12-08T04:38:07.241Z,63.24
2018-12-08T04:40:36.414Z,63.36
2018-12-08T04:43:05.625Z,62.98
2018-12-08T04:45:34.824Z,62.80
2018-12-08T04:48:03.991Z,62.77
2018-12-08T04:50:33.200Z,62.66
2018-12-08T04:53:02.475Z,63.04
2018-12-08T04:55:31.708Z,62.77
2018-12-08T04:58:00.921Z,62.83
2018-12-08T05:00:30.115Z,63.02
2018-12-08T05:02:59.253Z,62.58
2018-12-08T05:05:28.436Z,62.53
2018-12-08T05:07:57.556Z,63.11
2018-12-08T05:10:26.664Z,62.77
2018-12-08T05:12:55.877Z,62.25
2018-12-08T05:15:25.062Z,62.65
2018-12-08T05:17:54.307Z,62.08
2018-12-08T05:20:23.520Z,62.17
2018-12-08T05:22:52.690Z,61.79
2018-12-08T05:25:22.083Z,61.51
2018-12-08T05:27:51.250Z,61.51
2018-12-08T05:30:20.526Z,61.08
2018-12-08T05:32:49.673Z,60.83
2018-12-08T05:35:18.847Z,61.10
2018-12-08T05:37:48.075Z,60.46
2018-12-08T05:40:17.391Z,60.89
2018-12-08T05:42:46.599Z,61.35
2018-12-08T05:45:15.911Z,61.60
2018-12-08T05:47:45.236Z,62.33
2018-12-08T05:50:14.467Z,62.95
2018-12-08T05:52:43.723Z,63.90
2018-12-08T05:55:13.309Z,64.04
2018-12-08T05:57:42.561Z,64.36
2018-12-08T06:00:17.465Z,64.65
2018-12-08T06:02:46.879Z,64.35
2018-12-08T06:05:16.140Z,64.69
2018-12-08T06:07:45.300Z,64.50
2018-12-08T06:10:14.577Z,64.84
2018-12-08T06:12:43.744Z,64.50
2018-12-08T06:15:12.943Z,64.41
2018-12-08T06:17:42.228Z,64.62
2018-12-08T06:20:11.481Z,64.16
2018-12-08T06:22:40.627Z,64.50
2018-12-08T06:25:17.030Z,63.96
2018-12-08T06:27:58.662Z,63.79
2018-12-08T06:30:27.901Z,64.09
2018-12-08T06:32:57.029Z,63.74
2018-12-08T06:35:26.210Z,63.47
2018-12-08T06:37:55.458Z,63.71
2018-12-08T06:40:29.239Z,63.45
2018-12-08T06:42:55.860Z,63.30
2018-12-08T06:45:25.204Z,63.22
2018-12-08T06:47:54.496Z,62.84
2018-12-08T06:50:23.772Z,62.27
2018-12-08T06:52:53.043Z,61.53
2018-12-08T06:55:23.306Z,61.44
2018-12-08T06:57:52.598Z,61.40
2018-12-08T07:00:21.783Z,61.46
2018-12-08T07:02:51.011Z,61.49
2018-12-08T07:05:20.220Z,61.51
2018-12-08T07:07:49.474Z,61.75
2018-12-08T07:10:18.705Z,61.12
2018-12-08T07:12:47.911Z,61.23
2018-12-08T07:15:17.143Z,61.27
2018-12-08T07:17:46.386Z,61.21
2018-12-08T07:20:15.639Z,61.25
2018-12-08T07:22:45.650Z,61.05
2018-12-08T07:25:14.860Z,61.65
2018-12-08T07:27:44.072Z,61.02
2018-12-08T07:30:13.351Z,60.63
2018-12-08T07:32:42.508Z,60.03
2018-12-08T07:35:11.721Z,60.24
2018-12-08T07:37:41.007Z,60.19
2018-12-08T07:40:10.448Z,59.99
2018-12-08T07:42:39.602Z,60.52
2018-12-08T07:45:09.065Z,60.59
2018-12-08T07:47:38.319Z,60.76
2018-12-08T07:50:09.855Z,60.87
2018-12-08T07:52:39.316Z,60.40
2018-12-08T07:55:09.064Z,60.58
2018-12-08T07:57:38.294Z,60.33
2018-12-08T08:00:12.025Z,60.30
2018-12-08T08:02:41.439Z,60.69
2018-12-08T08:05:11.077Z,60.65
2018-12-08T08:07:40.368Z,61.43
2018-12-08T08:10:12.377Z,62.00
2018-12-08T08:12:41.680Z,60.75
2018-12-08T08:15:11.391Z,60.55
2018-12-08T08:17:40.667Z,60.84
2018-12-08T08:20:12.600Z,62.66
2018-12-08T08:22:41.879Z,59.62
2018-12-08T08:25:12.316Z,60.22
2018-12-08T08:27:41.468Z,60.35
2018-12-08T08:30:12.162Z,60.35
2018-12-08T08:32:41.319Z,61.10
2018-12-08T08:35:10.507Z,60.69
2018-12-08T08:37:39.698Z,60.67
2018-12-08T08:40:11.126Z,61.20
2018-12-08T08:42:40.335Z,61.08
2018-12-08T08:45:10.085Z,61.33
2018-12-08T08:47:39.551Z,61.23
2018-12-08T08:50:11.453Z,60.97
2018-12-08T08:52:40.659Z,60.70
2018-12-08T08:55:10.639Z,60.39
2018-12-08T08:57:40.035Z,60.94
2018-12-08T09:00:10.876Z,60.76
2018-12-08T09:02:40.096Z,60.78
2018-12-08T09:05:09.351Z,61.32
2018-12-08T09:07:38.651Z,60.79
2018-12-08T09:10:11.392Z,60.46
2018-12-08T09:12:40.552Z,60.73
2018-12-08T09:15:10.144Z,61.38
2018-12-08T09:17:39.367Z,60.63
2018-12-08T09:20:11.636Z,60.74
2018-12-08T09:22:41.370Z,61.03
2018-12-08T09:25:11.384Z,60.61
2018-12-08T09:27:43.589Z,60.33
2018-12-08T09:30:13.281Z,59.65
2018-12-08T09:32:49.299Z,59.35
2018-12-08T09:35:18.521Z,59.16
2018-12-08T09:37:47.660Z,58.79
2018-12-08T09:40:16.839Z,58.94
2018-12-08T09:42:46.044Z,58.15
2018-12-08T09:45:15.285Z,57.35
2018-12-08T09:47:44.550Z,57.25
2018-12-08T09:50:13.770Z,56.86
2018-12-08T09:52:42.978Z,56.83
2018-12-08T09:55:12.501Z,56.86
2018-12-08T09:57:41.925Z,56.56
2018-12-08T10:00:11.196Z,57.09
2018-12-08T10:02:40.394Z,57.67
2018-12-08T10:05:09.554Z,56.86
2018-12-08T10:07:38.753Z,57.34
2018-12-08T10:10:08.862Z,57.62
2018-12-08T10:12:38.132Z,57.65
2018-12-08T10:15:07.359Z,57.78
2018-12-08T10:17:36.515Z,57.63
2018-12-08T10:20:05.800Z,58.11
2018-12-08T10:22:35.043Z,57.76
2018-12-08T10:25:04.274Z,57.07
2018-12-08T10:27:33.483Z,57.34
2018-12-08T10:30:02.711Z,56.61
2018-12-08T10:32:31.920Z,57.10
2018-12-08T10:35:01.147Z,57.01
2018-12-08T10:37:33.239Z,56.56
2018-12-08T10:40:02.573Z,56.14
2018-12-08T10:42:31.751Z,55.65
2018-12-08T10:45:00.879Z,55.66
2018-12-08T10:47:30.068Z,55.25
2018-12-08T10:49:59.299Z,55.90
2018-12-08T10:52:28.485Z,55.18
2018-12-08T10:54:57.715Z,55.10
2018-12-08T10:57:26.927Z,54.95
2018-12-08T10:59:56.017Z,55.81
2018-12-08T11:02:30.595Z,55.63
2018-12-08T11:04:59.859Z,55.54
2018-12-08T11:07:29.064Z,55.20
2018-12-08T11:09:58.216Z,55.66
2018-12-08T11:12:27.448Z,55.08
2018-12-08T11:15:00.578Z,54.97
2018-12-08T11:17:27.756Z,54.45
2018-12-08T11:19:57.109Z,54.32
2018-12-08T11:22:26.351Z,54.85
2018-12-08T11:24:55.575Z,54.59
2018-12-08T11:27:24.745Z,54.13
2018-12-08T11:29:53.931Z,54.00
2018-12-08T11:32:23.187Z,55.25
2018-12-08T11:34:52.388Z,54.51
2018-12-08T11:37:28.049Z,55.50
2018-12-08T11:39:57.236Z,54.92
2018-12-08T11:42:26.312Z,55.65
2018-12-08T11:44:55.891Z,55.87
2018-12-08T11:47:25.123Z,56.01
2018-12-08T11:49:54.293Z,55.83
2018-12-08T11:52:23.571Z,56.49
2018-12-08T11:54:52.888Z,56.54
2018-12-08T11:57:22.043Z,56.64
2018-12-08T11:59:51.223Z,56.39
2018-12-08T12:02:20.391Z,56.21
2018-12-08T12:04:49.568Z,56.40
2018-12-08T12:07:18.775Z,56.36
2018-12-08T12:09:47.984Z,56.62
2018-12-08T12:12:17.189Z,57.19
2018-12-08T12:14:49.040Z,56.99
2018-12-08T12:17:18.326Z,56.77
2018-12-08T12:19:47.618Z,57.10
2018-12-08T12:22:16.872Z,57.20
2018-12-08T12:24:46.143Z,57.76
2018-12-08T12:27:15.323Z,57.07
2018-12-08T12:29:44.455Z,56.99
2018-12-08T12:32:13.711Z,57.92
2018-12-08T12:34:42.954Z,57.90
2018-12-08T12:37:12.140Z,57.83
2018-12-08T12:39:41.352Z,58.14
2018-12-08T12:42:10.543Z,57.43
2018-12-08T12:44:39.725Z,57.20
2018-12-08T12:47:09.839Z,56.77
2018-12-08T12:49:39.046Z,56.94
2018-12-08T12:52:08.244Z,56.65
2018-12-08T12:54:37.451Z,57.03
2018-12-08T12:57:06.671Z,56.17
2018-12-08T12:59:35.874Z,56.15
2018-12-08T13:02:05.036Z,58.47
2018-12-08T13:04:34.252Z,59.00
2018-12-08T13:07:03.324Z,59.88
2018-12-08T13:09:32.602Z,59.43
2018-12-08T13:12:01.996Z,59.55
2018-12-08T13:14:31.093Z,59.75
2018-12-08T13:17:00.363Z,59.01
2018-12-08T13:19:29.564Z,59.13
2018-12-08T13:21:58.777Z,59.48
2018-12-08T13:24:32.759Z,59.46
2018-12-08T13:27:02.074Z,59.69
2018-12-08T13:29:31.334Z,60.72
2018-12-08T13:32:00.479Z,60.69
2018-12-08T13:34:30.405Z,60.93
2018-12-08T13:36:59.596Z,60.34
2018-12-08T13:39:28.750Z,60.72
2018-12-08T13:41:58.031Z,61.17
2018-12-08T13:44:39.651Z,60.82
2018-12-08T13:47:08.859Z,60.84
2018-12-08T13:49:39.485Z,61.02
2018-12-08T13:52:08.814Z,61.00
2018-12-08T13:54:49.315Z,60.72
2018-12-08T13:57:18.488Z,60.95
2018-12-08T13:59:56.379Z,61.33
2018-12-08T14:02:26.164Z,61.19
2018-12-08T14:04:55.414Z,60.57
2018-12-08T14:07:24.693Z,60.36
2018-12-08T14:09:54.011Z,60.40
2018-12-08T14:12:23.215Z,60.08
2018-12-08T14:14:52.528Z,60.38
2018-12-08T14:17:21.705Z,60.51
2018-12-08T14:19:50.937Z,60.61
2018-12-08T14:22:20.196Z,60.87
2018-12-08T14:24:49.402Z,60.74
2018-12-08T14:27:18.702Z,60.31
2018-12-08T14:29:47.864Z,60.34
2018-12-08T14:32:16.980Z,60.27
2018-12-08T14:34:46.218Z,60.48
2018-12-08T14:37:15.404Z,60.50
2018-12-08T14:39:44.532Z,60.44
2018-12-08T14:42:13.695Z,60.67
2018-12-08T14:44:42.907Z,60.88
2018-12-08T14:47:12.108Z,61.11
2018-12-08T14:49:41.261Z,61.57
2018-12-08T14:52:10.471Z,61.98
2018-12-08T14:54:39.656Z,62.13
2018-12-08T14:57:08.932Z,62.30
2018-12-08T14:59:38.095Z,62.47
2018-12-08T15:02:07.316Z,62.98
2018-12-08T15:04:36.558Z,62.79
2018-12-08T15:07:05.746Z,63.00
2018-12-08T15:09:34.988Z,62.62
2018-12-08T15:12:04.239Z,62.71
2018-12-08T15:14:33.433Z,62.27
2018-12-08T15:17:02.686Z,61.89
2018-12-08T15:19:31.940Z,61.41
2018-12-08T15:22:01.269Z,60.52
2018-12-08T15:24:30.396Z,60.82
2018-12-08T15:26:59.531Z,60.97
2018-12-08T15:29:28.726Z,61.42
2018-12-08T15:31:57.959Z,61.69
2018-12-08T15:34:27.160Z,61.36
2018-12-08T15:36:56.373Z,61.63
2018-12-08T15:39:25.571Z,61.67
2018-12-08T15:41:54.629Z,61.83
2018-12-08T15:44:23.901Z,62.00
2018-12-08T15:46:53.171Z,61.69
2018-12-08T15:49:22.329Z,61.97
2018-12-08T15:51:57.147Z,61.64
2018-12-08T15:54:26.367Z,61.75
2018-12-08T15:56:55.539Z,62.23
2018-12-08T15:59:24.779Z,62.26
2018-12-08T16:01:54.084Z,62.58
2018-12-08T16:04:23.268Z,62.92
2018-12-08T16:06:52.442Z,63.43
2018-12-08T16:09:21.624Z,62.60
2018-12-08T16:11:50.828Z,62.90
2018-12-08T16:14:20.011Z,62.99
2018-12-08T16:16:49.279Z,63.81
2018-12-08T16:19:18.555Z,63.87
2018-12-08T16:21:47.791Z,64.11
2018-12-08T16:24:17.013Z,64.28
2018-12-08T16:26:46.178Z,64.25
2018-12-08T16:29:15.530Z,64.54
2018-12-08T16:31:44.762Z,63.95
2018-12-08T16:34:13.919Z,63.60
2018-12-08T16:36:43.077Z,63.26
2018-12-08T16:39:12.253Z,62.17
2018-12-08T16:41:41.396Z,61.95
2018-12-08T16:44:10.583Z,61.68
2018-12-08T16:46:39.832Z,61.60
2018-12-08T16:49:09.010Z,61.07
2018-12-08T16:51:38.161Z,61.53
2018-12-08T16:54:07.315Z,62.41
2018-12-08T16:56:36.594Z,63.32
2018-12-08T16:59:05.744Z,63.00
2018-12-08T17:01:34.968Z,62.64
2018-12-08T17:04:04.185Z,63.17
2018-12-08T17:06:33.315Z,63.68
2018-12-08T17:09:02.747Z,63.79
2018-12-08T17:11:31.863Z,63.12
2018-12-08T17:14:01.063Z,62.89
2018-12-08T17:16:30.258Z,62.55
2018-12-08T17:18:59.360Z,62.32
2018-12-08T17:21:28.535Z,62.34
2018-12-08T17:23:57.800Z,62.31
2018-12-08T17:26:27.068Z,62.04
2018-12-08T17:28:56.202Z,61.76
2018-12-08T17:31:25.388Z,62.16
2018-12-08T17:33:54.640Z,61.96
2018-12-08T17:36:23.847Z,61.65
2018-12-08T17:38:53.067Z,61.17
2018-12-08T17:41:22.311Z,61.14
2018-12-08T17:43:51.507Z,61.23
2018-12-08T17:46:20.850Z,61.26
2018-12-08T17:48:50.063Z,61.26
2018-12-08T17:51:19.218Z,61.55
2018-12-08T17:53:48.444Z,60.27
2018-12-08T17:56:17.653Z,59.65
2018-12-08T17:58:46.911Z,60.05
2018-12-08T18:01:16.244Z,59.75
2018-12-08T18:03:45.432Z,59.59
2018-12-08T18:06:14.644Z,59.70
2018-12-08T18:08:43.874Z,59.80
2018-12-08T18:11:13.194Z,60.01
2018-12-08T18:13:42.368Z,59.63
2018-12-08T18:16:11.520Z,59.62
2018-12-08T18:18:40.712Z,59.37
2018-12-08T18:21:10.101Z,58.68
2018-12-08T18:23:39.473Z,59.24
2018-12-08T18:26:08.650Z,59.47
2018-12-08T18:28:37.805Z,59.19
2018-12-08T18:31:07.036Z,59.15
2018-12-08T18:33:36.182Z,58.02
2018-12-08T18:36:05.364Z,58.01
2018-12-08T18:38:34.564Z,57.65
2018-12-08T18:41:04.042Z,58.10
2018-12-08T18:43:33.210Z,58.09
2018-12-08T18:46:02.416Z,58.58
2018-12-08T18:48:31.618Z,58.62
2018-12-08T18:51:00.834Z,58.94
2018-12-08T18:53:29.964Z,59.73
2018-12-08T18:55:59.260Z,59.93
2018-12-08T18:58:28.454Z,60.48
2018-12-08T19:00:57.648Z,60.33
2018-12-08T19:03:26.844Z,60.70
2018-12-08T19:05:55.994Z,61.04
2018-12-08T19:08:25.220Z,61.38
2018-12-08T19:10:54.409Z,61.25
2018-12-08T19:13:23.688Z,61.85
2018-12-08T19:15:52.876Z,62.43
2018-12-08T19:18:22.059Z,63.18
2018-12-08T19:20:51.262Z,63.52
2018-12-08T19:23:20.540Z,63.45
2018-12-08T19:25:49.860Z,63.47
2018-12-08T19:28:19.097Z,63.60
2018-12-08T19:30:48.260Z,63.86
2018-12-08T19:33:17.442Z,64.58
2018-12-08T19:35:46.750Z,64.62
2018-12-08T19:38:15.906Z,65.09
2018-12-08T19:40:45.115Z,65.50
2018-12-08T19:43:14.308Z,65.85
2018-12-08T19:45:43.394Z,65.83
2018-12-08T19:48:12.532Z,65.99
2018-12-08T19:50:41.745Z,66.29
2018-12-08T19:53:10.948Z,66.24
2018-12-08T19:55:40.289Z,66.44
2018-12-08T19:58:09.444Z,66.67
2018-12-08T20:00:38.663Z,66.97
2018-12-08T20:03:07.839Z,66.93
2018-12-08T20:05:37.043Z,66.54
2018-12-08T20:08:06.387Z,66.44
2018-12-08T20:10:35.596Z,66.28
2018-12-08T20:13:04.828Z,65.46
2018-12-08T20:15:34.081Z,64.78
2018-12-08T20:18:03.250Z,64.06
2018-12-08T20:20:32.667Z,64.19
2018-12-08T20:23:01.804Z,64.58
2018-12-08T20:25:31.016Z,64.81
2018-12-08T20:28:00.231Z,65.17
2018-12-08T20:30:29.424Z,65.24
2018-12-08T20:32:58.576Z,65.20
2018-12-08T20:35:27.780Z,65.20
2018-12-08T20:37:56.860Z,65.28
2018-12-08T20:40:26.135Z,65.52
2018-12-08T20:42:55.410Z,65.52
2018-12-08T20:45:24.595Z,66.09
2018-12-08T20:47:53.696Z,65.58
2018-12-08T20:50:22.906Z,65.46
2018-12-08T20:52:52.162Z,65.16
2018-12-08T20:55:23.319Z,64.50
2018-12-08T20:57:52.548Z,64.24
2018-12-08T21:00:21.753Z,64.56
2018-12-08T21:02:50.843Z,64.62
2018-12-08T21:05:20.040Z,64.75
2018-12-08T21:07:49.303Z,64.97
2018-12-08T21:10:19.348Z,65.04
2018-12-08T21:12:48.552Z,65.17
2018-12-08T21:15:17.720Z,65.05
2018-12-08T21:17:46.933Z,65.25
2018-12-08T21:20:16.148Z,65.11
2018-12-08T21:22:45.324Z,65.30
2018-12-08T21:25:14.545Z,64.87
2018-12-08T21:27:43.722Z,65.09
2018-12-08T21:30:12.919Z,65.20
2018-12-08T21:32:42.088Z,65.40
2018-12-08T21:35:11.243Z,65.50
2018-12-08T21:37:40.347Z,65.74
2018-12-08T21:40:25.596Z,65.69
2018-12-08T21:42:55.034Z,65.79
2018-12-08T21:45:24.184Z,65.41
2018-12-08T21:47:53.436Z,65.20
2018-12-08T21:50:22.590Z,65.11
2018-12-08T21:52:51.708Z,64.41
2018-12-08T21:55:20.832Z,64.33
2018-12-08T21:57:50.067Z,64.84
2018-12-08T22:00:19.289Z,64.52
2018-12-08T22:02:48.503Z,64.27
2018-12-08T22:05:17.672Z,64.25
2018-12-08T22:07:46.868Z,64.55
2018-12-08T22:10:16.100Z,64.66
2018-12-08T22:12:45.356Z,64.65
2018-12-08T22:15:17.731Z,64.71
2018-12-08T22:17:47.459Z,64.87
2018-12-08T22:20:16.656Z,64.77
2018-12-08T22:22:45.839Z,65.11
2018-12-08T22:25:15.040Z,65.18
2018-12-08T22:27:44.335Z,65.53
2018-12-08T22:30:13.616Z,65.60
2018-12-08T22:32:42.908Z,65.53
2018-12-08T22:35:12.355Z,65.63
2018-12-08T22:37:41.548Z,66.02
2018-12-08T22:40:10.877Z,65.93
2018-12-08T22:42:40.160Z,66.27
2018-12-08T22:45:09.361Z,66.64
2018-12-08T22:47:38.532Z,66.93
2018-12-08T22:50:08.570Z,67.37
2018-12-08T22:52:37.681Z,67.05
2018-12-08T22:55:06.871Z,66.77
2018-12-08T22:57:36.080Z,67.17
2018-12-08T23:00:13.983Z,67.40
2018-12-08T23:02:43.199Z,68.22
2018-12-08T23:05:12.388Z,68.37
2018-12-08T23:07:41.600Z,68.79
2018-12-08T23:10:10.774Z,68.94
2018-12-08T23:12:40.056Z,69.39
2018-12-08T23:15:09.268Z,69.26
2018-12-08T23:17:38.500Z,69.46
2018-12-08T23:20:07.875Z,69.76
2018-12-08T23:22:37.047Z,70.23
2018-12-08T23:25:06.366Z,70.40
2018-12-08T23:27:35.634Z,70.00
2018-12-08T23:30:05.183Z,70.22
2018-12-08T23:32:34.341Z,70.91
2018-12-08T23:35:03.658Z,71.26
2018-12-08T23:37:32.871Z,71.23
2018-12-08T23:40:02.088Z,71.06
2018-12-08T23:42:31.256Z,71.13
2018-12-08T23:45:00.501Z,71.29
2018-12-08T23:47:29.810Z,71.37
2018-12-08T23:49:59.003Z,71.66
2018-12-08T23:52:28.145Z,71.49
2018-12-08T23:54:57.783Z,71.49
2018-12-08T23:57:27.063Z,71.17
2018-12-08T23:59:56.265Z,71.33
